Time;durP1;ratioP1;P1;durP2;ratioP2;P2;SDS_P1;SDS_P2;PMS_P1;PMS_P2;Temp;Humidity;BMP_temperature;BMP_pressure;BME280_temperature;BME280_humidity;BME280_pressure;Samples;Min_cycle;Max_cycle;Signal;HPM_P1;HPM_P2
2022/02/14 00:00:40;;;;;;;6.20;3.17;;;11.30;99.90;;;;;;5135606;27;20200;-74
2022/02/14 00:03:07;;;;;;;5.23;2.73;;;11.40;99.90;;;;;;5136673;27;20216;-74
2022/02/14 00:05:34;;;;;;;7.47;3.53;;;11.30;99.90;;;;;;5136454;27;20229;-74
2022/02/14 00:08:02;;;;;;;7.90;3.10;;;11.40;99.90;;;;;;5136364;27;20216;-75
2022/02/14 00:10:29;;;;;;;7.47;3.00;;;11.40;99.90;;;;;;5136425;27;20197;-75
2022/02/14 00:12:55;;;;;;;5.80;3.30;;;11.40;99.90;;;;;;5136664;27;20530;-74
2022/02/14 00:15:22;;;;;;;3.80;2.80;;;11.40;99.90;;;;;;5136545;27;20319;-74
2022/02/14 00:17:51;;;;;;;5.28;3.88;;;11.30;99.90;;;;;;5135234;27;20430;-75
2022/02/14 00:20:18;;;;;;;6.93;3.30;;;11.40;99.90;;;;;;5135881;27;20230;-74
2022/02/14 00:22:44;;;;;;;5.37;3.13;;;11.50;99.90;;;;;;5136296;27;20193;-74
2022/02/14 00:25:13;;;;;;;5.23;2.57;;;11.50;99.90;;;;;;5135934;27;20240;-74
2022/02/14 00:27:40;;;;;;;5.40;2.90;;;11.40;99.90;;;;;;5136249;27;20202;-75
2022/02/14 00:30:08;;;;;;;3.37;2.43;;;11.60;99.90;;;;;;5135461;27;20579;-75
2022/02/14 00:32:35;;;;;;;6.43;2.63;;;11.40;99.90;;;;;;5135704;27;20203;-75
2022/02/14 00:35:04;;;;;;;7.17;2.60;;;11.30;99.90;;;;;;5135610;27;20257;-74
2022/02/14 00:37:31;;;;;;;7.80;2.53;;;11.40;99.90;;;;;;5135948;27;20216;-75
2022/02/14 00:39:58;;;;;;;5.20;2.10;;;11.40;99.90;;;;;;5135736;27;20197;-75
2022/02/14 00:42:25;;;;;;;6.40;2.47;;;11.30;99.90;;;;;;5135617;27;20183;-75
2022/02/14 00:44:52;;;;;;;7.83;2.70;;;11.40;99.90;;;;;;5135251;27;20225;-75
2022/02/14 00:47:18;;;;;;;3.33;2.37;;;11.40;99.90;;;;;;5135456;27;20212;-74
2022/02/14 00:49:45;;;;;;;3.80;2.00;;;11.40;99.90;;;;;;5136525;27;20207;-74
2022/02/14 00:52:14;;;;;;;7.63;2.47;;;11.40;99.90;;;;;;5136214;27;20204;-75
2022/02/14 00:54:42;;;;;;;4.28;2.60;;;11.50;99.90;;;;;;5135934;27;20427;-74
2022/02/14 00:57:09;;;;;;;5.23;2.50;;;11.50;99.90;;;;;;5135770;27;20287;-75
2022/02/14 00:59:36;;;;;;;8.40;2.60;;;11.50;99.90;;;;;;5136230;27;20204;-74
2022/02/14 01:02:04;;;;;;;6.60;2.53;;;11.50;99.90;;;;;;5135896;27;20190;-86
2022/02/14 01:04:31;;;;;;;5.77;2.57;;;11.50;99.90;;;;;;5136273;27;20311;-74
2022/02/14 01:06:58;;;;;;;2.73;2.20;;;11.40;99.90;;;;;;5136274;27;20210;-75
2022/02/14 01:09:26;;;;;;;4.90;2.23;;;11.30;99.90;;;;;;5135838;27;20219;-74
2022/02/14 01:11:53;;;;;;;3.73;2.40;;;11.30;99.90;;;;;;5135907;27;20189;-74
2022/02/14 01:14:20;;;;;;;5.73;2.63;;;11.40;99.90;;;;;;5136296;27;20227;-75
2022/02/14 01:16:47;;;;;;;4.83;2.40;;;11.30;99.90;;;;;;5135445;27;20223;-74
2022/02/14 01:19:14;;;;;;;9.40;3.03;;;11.30;99.90;;;;;;5135778;27;20203;-74
2022/02/14 01:21:42;;;;;;;7.47;3.13;;;11.30;99.90;;;;;;5135696;27;20198;-77
2022/02/14 01:24:09;;;;;;;3.73;2.30;;;11.40;99.90;;;;;;5136162;27;20209;-74
2022/02/14 01:26:37;;;;;;;8.97;2.60;;;11.50;99.90;;;;;;5135547;27;20228;-75
2022/02/14 01:29:04;;;;;;;7.20;2.33;;;11.40;99.90;;;;;;5135102;27;20683;-73
2022/02/14 01:31:32;;;;;;;6.50;2.70;;;11.40;99.90;;;;;;5134547;27;20255;-74
2022/02/14 01:33:59;;;;;;;4.27;2.20;;;11.40;99.90;;;;;;5134759;27;20600;-76
2022/02/14 01:36:26;;;;;;;6.00;2.33;;;11.40;99.90;;;;;;5134845;27;20201;-74
2022/02/14 01:38:53;;;;;;;5.10;2.00;;;11.40;99.90;;;;;;5134835;27;20212;-75
2022/02/14 01:41:21;;;;;;;5.50;2.47;;;11.30;99.90;;;;;;5135124;27;20192;-74
2022/02/14 01:43:49;;;;;;;4.87;2.47;;;11.30;99.90;;;;;;5135147;27;20212;-74
2022/02/14 01:46:16;;;;;;;2.93;2.13;;;11.30;99.90;;;;;;5134813;27;20236;-75
2022/02/14 01:48:43;;;;;;;5.73;2.80;;;11.30;99.90;;;;;;5134268;27;20211;-74
2022/02/14 01:51:10;;;;;;;6.53;2.40;;;11.30;99.90;;;;;;5135491;27;20194;-74
2022/02/14 01:53:40;;;;;;;6.30;2.03;;;11.30;99.90;;;;;;5134978;27;20200;-75
2022/02/14 01:56:07;;;;;;;8.97;2.30;;;11.30;99.90;;;;;;5135139;27;20250;-74
2022/02/14 01:58:34;;;;;;;6.10;2.40;;;11.20;99.90;;;;;;5135011;27;20662;-75
2022/02/14 02:01:02;;;;;;;7.43;2.20;;;11.30;99.90;;;;;;5135010;27;20192;-74
2022/02/14 02:03:29;;;;;;;4.47;2.67;;;11.20;99.90;;;;;;5135354;27;20211;-75
2022/02/14 02:05:57;;;;;;;3.80;1.90;;;11.20;99.90;;;;;;5134587;27;20232;-74
2022/02/14 02:08:25;;;;;;;5.47;2.47;;;11.20;99.90;;;;;;5135405;27;20218;-75
2022/02/14 02:12:22;;;;;;;4.43;2.30;;;11.30;99.90;;;;;;5134685;27;20196;-74
2022/02/14 02:13:47;;;;;;;6.00;2.22;;;11.30;99.90;;;;;;5133473;27;20490;-88
2022/02/14 02:16:17;;;;;;;5.93;2.17;;;11.40;99.90;;;;;;5134189;27;20580;-75
2022/02/14 02:18:44;;;;;;;8.53;2.43;;;11.40;99.90;;;;;;5134684;27;20208;-75
2022/02/14 02:21:11;;;;;;;4.57;2.47;;;11.40;99.90;;;;;;5134434;27;20200;-75
2022/02/14 02:23:42;;;;;;;4.97;2.77;;;11.30;99.90;;;;;;5133068;27;20215;-74
2022/02/14 02:26:10;;;;;;;2.63;2.40;;;11.30;99.90;;;;;;5134788;27;20232;-75
2022/02/14 02:28:38;;;;;;;6.13;2.20;;;11.30;99.90;;;;;;5134236;27;20206;-74
2022/02/14 02:31:05;;;;;;;4.87;2.97;;;11.20;99.90;;;;;;5135485;28;20184;-75
2022/02/14 02:33:34;;;;;;;4.27;3.10;;;11.20;99.90;;;;;;5135927;28;20229;-76
2022/02/14 02:36:01;;;;;;;9.20;3.20;;;11.20;99.90;;;;;;5135863;28;20200;-77
2022/02/14 02:38:28;;;;;;;5.90;3.40;;;11.20;99.90;;;;;;5136597;28;20208;-76
2022/02/14 02:40:55;;;;;;;6.37;2.47;;;11.20;99.90;;;;;;5135396;28;20213;-76
2022/02/14 02:43:24;;;;;;;7.57;2.77;;;11.20;99.90;;;;;;5134791;28;20200;-74
2022/02/14 02:45:55;;;;;;;7.63;3.40;;;11.30;99.90;;;;;;5134862;28;20220;-85
2022/02/14 02:48:23;;;;;;;3.80;3.10;;;11.40;99.90;;;;;;5135173;28;20201;-77
2022/02/14 02:51:03;;;;;;;5.83;3.40;;;11.40;99.90;;;;;;5135422;28;20191;-75
2022/02/14 02:53:30;;;;;;;3.03;2.73;;;11.40;99.90;;;;;;5134928;28;20247;-85
2022/02/14 02:55:58;;;;;;;6.50;2.90;;;11.40;99.90;;;;;;5134716;28;20578;-77
2022/02/14 02:58:27;;;;;;;6.40;3.33;;;11.40;99.90;;;;;;5134032;28;20207;-75
2022/02/14 03:00:53;;;;;;;4.73;3.40;;;11.40;99.90;;;;;;5134304;28;20211;-75
2022/02/14 03:03:20;;;;;;;5.10;3.20;;;11.30;99.90;;;;;;5134236;28;20207;-74
2022/02/14 03:05:47;;;;;;;4.93;3.47;;;11.30;99.90;;;;;;5134095;28;20294;-74
2022/02/14 03:08:14;;;;;;;6.73;4.03;;;11.30;99.90;;;;;;5134225;28;20294;-74
2022/02/14 03:10:40;;;;;;;6.07;3.63;;;11.40;99.90;;;;;;5132852;28;20694;-74
2022/02/14 03:13:07;;;;;;;7.63;4.40;;;11.40;99.90;;;;;;5134260;28;20614;-75
2022/02/14 03:15:36;;;;;;;4.23;3.60;;;11.40;99.90;;;;;;5133567;28;20280;-76
2022/02/14 03:18:03;;;;;;;6.47;4.20;;;11.40;99.90;;;;;;5133196;28;20193;-76
2022/02/14 03:20:32;;;;;;;8.37;4.20;;;11.40;99.90;;;;;;5132838;28;20655;-74
2022/02/14 03:22:59;;;;;;;4.30;3.13;;;11.40;99.90;;;;;;5133187;28;20345;-74
2022/02/14 03:25:25;;;;;;;6.27;3.23;;;11.40;99.90;;;;;;5133429;28;20196;-81
2022/02/14 03:27:53;;;;;;;7.37;3.13;;;11.40;99.90;;;;;;5132686;28;20203;-75
2022/02/14 03:30:21;;;;;;;5.78;3.30;;;11.40;99.90;;;;;;5133720;28;20430;-74
2022/02/14 03:32:49;;;;;;;6.40;2.80;;;11.40;99.90;;;;;;5133578;28;20612;-85
2022/02/14 03:35:16;;;;;;;5.47;2.57;;;11.30;99.90;;;;;;5135288;27;20204;-74
2022/02/14 03:37:42;;;;;;;6.43;3.03;;;11.40;99.90;;;;;;5137876;27;20208;-74
2022/02/14 03:40:10;;;;;;;7.40;2.77;;;11.40;99.90;;;;;;5137168;27;20229;-74
2022/02/14 03:42:37;;;;;;;3.83;2.37;;;11.40;99.90;;;;;;5137390;27;20294;-80
2022/02/14 03:45:06;;;;;;;3.57;2.50;;;11.40;99.90;;;;;;5137566;27;20191;-75
2022/02/14 03:47:33;;;;;;;5.27;2.30;;;11.30;99.90;;;;;;5137022;27;20232;-74
2022/02/14 03:50:01;;;;;;;2.83;2.07;;;11.30;99.90;;;;;;5139128;27;20201;-75
2022/02/14 03:52:28;;;;;;;3.50;1.63;;;11.30;99.90;;;;;;5152783;27;20199;-75
2022/02/14 03:54:54;;;;;;;3.13;2.10;;;11.30;99.90;;;;;;5156088;27;20202;-81
2022/02/14 03:57:21;;;;;;;2.50;1.90;;;11.30;99.90;;;;;;5156149;27;20673;-74
2022/02/14 03:59:48;;;;;;;7.40;1.93;;;11.20;99.90;;;;;;5157619;27;20295;-76
2022/02/14 04:02:15;;;;;;;2.20;1.57;;;11.30;99.90;;;;;;5158201;27;20228;-80
2022/02/14 04:04:42;;;;;;;6.10;1.70;;;11.30;99.90;;;;;;5158135;27;20203;-77
2022/02/14 04:07:10;;;;;;;3.03;1.50;;;11.30;99.90;;;;;;5158113;27;20710;-76
2022/02/14 04:09:37;;;;;;;3.15;1.95;;;11.30;99.90;;;;;;5157630;27;20428;-76
2022/02/14 04:12:04;;;;;;;5.13;2.00;;;11.30;99.90;;;;;;5158436;27;20211;-74
2022/02/14 04:14:31;;;;;;;3.30;1.93;;;11.30;99.90;;;;;;5158488;27;20227;-76
2022/02/14 04:16:57;;;;;;;4.03;1.70;;;11.30;99.90;;;;;;5157927;27;20204;-75
2022/02/14 04:19:24;;;;;;;7.10;1.90;;;11.30;99.90;;;;;;5158428;27;20184;-85
2022/02/14 04:21:51;;;;;;;3.10;1.87;;;11.20;99.90;;;;;;5157594;27;20203;-75
2022/02/14 04:24:19;;;;;;;5.53;1.87;;;11.20;99.90;;;;;;5157057;27;20195;-75
2022/02/14 04:26:46;;;;;;;5.03;1.70;;;11.30;99.90;;;;;;5156891;27;20238;-75
2022/02/14 04:29:13;;;;;;;4.50;1.90;;;11.20;99.90;;;;;;5149175;27;20197;-76
2022/02/14 04:31:39;;;;;;;8.23;2.00;;;11.30;99.90;;;;;;5136987;27;20627;-77
2022/02/14 04:34:08;;;;;;;6.50;2.10;;;11.40;99.90;;;;;;5137162;27;20553;-86
2022/02/14 04:36:35;;;;;;;4.20;2.03;;;11.40;99.90;;;;;;5136941;27;20208;-84
2022/02/14 04:39:02;;;;;;;9.37;2.17;;;11.40;99.90;;;;;;5137614;27;20193;-84
2022/02/14 04:41:30;;;;;;;7.03;1.83;;;11.30;99.90;;;;;;5136912;27;20211;-87
2022/02/14 04:43:56;;;;;;;3.73;1.93;;;11.40;99.90;;;;;;5136679;27;20196;-74
2022/02/14 04:46:23;;;;;;;3.33;2.00;;;11.40;99.90;;;;;;5134980;27;20711;-75
2022/02/14 04:48:52;;;;;;;4.60;2.00;;;11.40;99.90;;;;;;5135690;27;20434;-74
2022/02/14 04:51:19;;;;;;;5.87;1.97;;;11.40;99.90;;;;;;5135973;27;20608;-76
2022/02/14 04:53:46;;;;;;;1.73;1.60;;;11.40;99.90;;;;;;5135854;27;20196;-74
2022/02/14 04:56:13;;;;;;;2.23;1.50;;;11.40;99.90;;;;;;5135606;27;20225;-86
2022/02/14 04:58:41;;;;;;;4.37;1.80;;;11.40;99.90;;;;;;5135848;27;20188;-75
2022/02/14 05:01:08;;;;;;;5.03;2.27;;;11.40;99.90;;;;;;5135966;27;20193;-75
2022/02/14 05:03:35;;;;;;;3.43;1.97;;;11.50;99.90;;;;;;5135481;27;20588;-75
2022/02/14 05:06:02;;;;;;;2.27;1.53;;;11.60;99.90;;;;;;5135057;27;20236;-74
2022/02/14 05:08:29;;;;;;;3.40;1.90;;;11.60;99.90;;;;;;5135113;27;20204;-74
2022/02/14 05:10:56;;;;;;;2.97;1.77;;;11.50;99.90;;;;;;5136086;27;20211;-79
2022/02/14 05:13:23;;;;;;;7.30;2.00;;;11.50;99.90;;;;;;5135652;27;20204;-82
2022/02/14 05:15:51;;;;;;;2.27;1.97;;;11.70;99.90;;;;;;5136502;27;20360;-85
2022/02/14 05:18:18;;;;;;;4.97;2.20;;;11.70;99.90;;;;;;5136588;27;20209;-85
2022/02/14 05:20:52;;;;;;;2.80;2.00;;;11.70;99.90;;;;;;5136970;27;20196;-85
2022/02/14 05:23:20;;;;;;;7.07;1.97;;;11.80;99.90;;;;;;5146314;27;20205;-82
2022/02/14 05:25:46;;;;;;;4.80;1.93;;;11.80;99.90;;;;;;5142219;27;20201;-87
2022/02/14 05:28:15;;;;;;;5.43;2.00;;;11.80;99.90;;;;;;5142767;27;20435;-88
2022/02/14 05:30:45;;;;;;;5.57;1.80;;;11.80;99.90;;;;;;5138874;27;20209;-88
2022/02/14 05:33:19;;;;;;;3.80;2.00;;;11.90;99.90;;;;;;5139173;27;20205;-85
2022/02/14 05:35:51;;;;;;;4.70;2.03;;;11.80;99.90;;;;;;5139982;27;20228;-91
2022/02/14 05:38:24;;;;;;;2.37;1.57;;;11.90;99.90;;;;;;5137427;27;20200;-86
2022/02/14 05:40:51;;;;;;;4.17;1.90;;;11.80;99.90;;;;;;5137366;27;20209;-87
2022/02/14 05:43:21;;;;;;;3.33;1.83;;;11.80;99.90;;;;;;5138150;27;20221;-84
2022/02/14 05:45:48;;;;;;;3.63;1.90;;;11.60;99.90;;;;;;5137694;27;20204;-88
2022/02/14 05:48:16;;;;;;;3.57;1.67;;;11.60;99.90;;;;;;5138598;27;20688;-90
2022/02/14 05:50:45;;;;;;;3.33;2.13;;;11.50;99.90;;;;;;5137208;27;20201;-87
2022/02/14 05:53:12;;;;;;;3.33;1.73;;;11.50;99.90;;;;;;5136274;27;20670;-76
2022/02/14 05:55:39;;;;;;;3.43;2.10;;;11.50;99.90;;;;;;5137250;27;20188;-87
2022/02/14 05:58:06;;;;;;;6.67;2.13;;;11.40;99.90;;;;;;5137447;27;20184;-82
2022/02/14 06:00:34;;;;;;;2.90;1.10;;;11.20;99.90;;;;;;5140599;27;20745;-88
2022/02/14 06:03:00;;;;;;;0.90;0.90;;;10.80;99.90;;;;;;5137981;27;20219;-88
2022/02/14 06:05:29;;;;;;;1.47;0.90;;;10.40;99.90;;;;;;5136758;27;20200;-85
2022/02/14 06:07:57;;;;;;;1.57;0.57;;;10.10;99.90;;;;;;5135958;27;20243;-87
2022/02/14 06:10:26;;;;;;;0.80;0.80;;;9.90;99.90;;;;;;5136225;27;20196;-89
2022/02/14 06:12:53;;;;;;;1.90;0.70;;;9.90;99.90;;;;;;5135361;27;20206;-84
2022/02/14 06:15:26;;;;;;;0.77;0.77;;;9.80;99.90;;;;;;5135940;27;20272;-85
2022/02/14 06:17:53;;;;;;;0.70;0.70;;;9.70;99.90;;;;;;5135425;27;20792;-84
2022/02/14 06:20:21;;;;;;;2.00;1.17;;;9.60;99.90;;;;;;5135770;27;20214;-85
2022/02/14 06:22:58;;;;;;;1.27;0.90;;;9.60;99.90;;;;;;5135059;27;20673;-87
2022/02/14 06:25:25;;;;;;;0.87;0.70;;;9.50;99.90;;;;;;5135450;27;20195;-86
2022/02/14 06:27:52;;;;;;;1.47;0.80;;;9.50;99.90;;;;;;5135303;27;20212;-84
2022/02/14 06:30:22;;;;;;;1.47;1.00;;;9.50;99.90;;;;;;5135616;27;20210;-85
2022/02/14 06:32:49;;;;;;;0.90;0.70;;;9.40;99.90;;;;;;5135683;27;20195;-86
2022/02/14 06:35:16;;;;;;;1.63;1.00;;;9.40;99.90;;;;;;5135688;27;20184;-88
2022/02/14 06:37:43;;;;;;;1.50;1.00;;;9.40;99.90;;;;;;5136334;28;20195;-80
2022/02/14 06:40:14;;;;;;;1.60;1.03;;;9.40;99.90;;;;;;5137317;28;20191;-86
2022/02/14 06:42:42;;;;;;;3.23;1.27;;;9.40;99.90;;;;;;5137844;28;20184;-89
2022/02/14 06:45:09;;;;;;;1.00;0.90;;;9.40;99.90;;;;;;5135307;28;20630;-85
2022/02/14 06:47:36;;;;;;;1.00;1.00;;;9.40;99.90;;;;;;5136354;27;20551;-85
2022/02/14 06:50:03;;;;;;;0.80;0.80;;;9.40;99.90;;;;;;5135340;28;20272;-84
2022/02/14 06:52:30;;;;;;;1.10;1.10;;;9.40;99.90;;;;;;5135047;28;20191;-89
2022/02/14 06:54:57;;;;;;;0.90;0.90;;;9.40;99.90;;;;;;5134872;28;20195;-86
2022/02/14 06:57:25;;;;;;;3.40;0.93;;;9.30;99.90;;;;;;5135488;28;20599;-85
2022/02/14 06:59:52;;;;;;;0.90;0.90;;;9.40;99.90;;;;;;5135155;28;20188;-78
2022/02/14 07:02:19;;;;;;;0.87;0.83;;;9.30;99.90;;;;;;5135572;28;20203;-80
2022/02/14 07:04:46;;;;;;;0.80;0.80;;;9.30;99.90;;;;;;5134683;27;20203;-84
2022/02/14 07:07:18;;;;;;;0.77;0.70;;;9.30;99.90;;;;;;5135441;28;20230;-89
2022/02/14 07:09:45;;;;;;;1.90;1.30;;;9.20;99.90;;;;;;5136367;27;20187;-76
2022/02/14 07:12:13;;;;;;;1.47;0.80;;;9.10;99.90;;;;;;5139770;27;20207;-82
2022/02/14 07:14:41;;;;;;;1.30;0.83;;;9.00;99.90;;;;;;5138746;27;20215;-84
2022/02/14 07:17:11;;;;;;;1.43;0.90;;;9.00;99.90;;;;;;5139013;27;20207;-87
2022/02/14 07:19:38;;;;;;;1.23;1.00;;;9.00;99.90;;;;;;5141112;27;20199;-81
2022/02/14 07:22:13;;;;;;;2.20;1.00;;;9.00;99.90;;;;;;5140593;27;20218;-84
2022/02/14 07:24:40;;;;;;;2.20;1.20;;;9.00;99.90;;;;;;5135793;27;20262;-77
2022/02/14 07:27:07;;;;;;;2.97;1.50;;;9.00;99.90;;;;;;5139291;27;20251;-81
2022/02/14 07:29:34;;;;;;;1.83;1.10;;;9.00;99.90;;;;;;5140177;27;20207;-82
2022/02/14 07:32:13;;;;;;;2.23;1.07;;;9.00;99.90;;;;;;5140311;27;20200;-76
2022/02/14 07:34:48;;;;;;;2.00;0.90;;;9.00;99.90;;;;;;5138417;27;20666;-85
2022/02/14 07:37:16;;;;;;;1.83;1.00;;;9.00;99.90;;;;;;5140684;27;20658;-83
2022/02/14 07:39:42;;;;;;;1.53;0.80;;;9.00;99.90;;;;;;5138732;27;20204;-86
2022/02/14 07:42:09;;;;;;;4.20;1.00;;;9.00;99.90;;;;;;5139015;27;20192;-81
2022/02/14 07:44:39;;;;;;;2.30;0.90;;;9.10;99.90;;;;;;5138464;27;20658;-79
2022/02/14 07:47:07;;;;;;;3.87;0.80;;;9.20;99.90;;;;;;5138544;27;20220;-85
2022/02/14 07:49:34;;;;;;;1.53;0.90;;;9.20;99.90;;;;;;5138184;27;20204;-85
2022/02/14 07:52:04;;;;;;;1.90;0.93;;;9.20;99.90;;;;;;5139892;27;20188;-84
2022/02/14 07:54:31;;;;;;;5.07;1.10;;;9.20;99.90;;;;;;5139786;27;20192;-87
2022/02/14 07:56:58;;;;;;;3.70;1.33;;;9.10;99.90;;;;;;5139017;27;20657;-76
2022/02/14 07:59:26;;;;;;;7.50;0.83;;;9.10;99.90;;;;;;5138324;27;20195;-81
2022/02/14 08:01:53;;;;;;;4.10;1.57;;;9.10;99.90;;;;;;5139065;27;20274;-78
2022/02/14 08:04:24;;;;;;;3.07;0.80;;;9.20;99.90;;;;;;5138009;27;20239;-78
2022/02/14 08:06:53;;;;;;;2.60;1.33;;;9.20;99.90;;;;;;5138003;27;20308;-84
2022/02/14 08:09:20;;;;;;;6.00;0.90;;;9.30;99.90;;;;;;5137733;27;20658;-75
2022/02/14 08:11:46;;;;;;;4.50;0.90;;;9.40;99.90;;;;;;5137244;27;20207;-74
2022/02/14 08:14:14;;;;;;;0.90;0.67;;;9.30;99.90;;;;;;5136424;27;20607;-77
2022/02/14 08:16:41;;;;;;;1.10;0.70;;;9.30;99.90;;;;;;5136674;27;20223;-83
2022/02/14 08:19:08;;;;;;;1.47;0.90;;;9.30;99.90;;;;;;5136620;27;20205;-76
2022/02/14 08:21:36;;;;;;;6.43;1.00;;;9.40;99.90;;;;;;5136075;27;20196;-73
2022/02/14 08:24:04;;;;;;;3.00;1.00;;;9.40;99.90;;;;;;5137046;27;20244;-76
2022/02/14 08:26:31;;;;;;;3.33;1.00;;;9.50;99.90;;;;;;5137125;27;20188;-74
2022/02/14 08:28:59;;;;;;;1.00;0.90;;;9.50;99.90;;;;;;5137022;27;20223;-75
2022/02/14 08:31:25;;;;;;;3.53;1.20;;;9.50;99.90;;;;;;5136588;27;20240;-74
2022/02/14 08:33:52;;;;;;;2.50;1.33;;;9.60;99.90;;;;;;5136213;27;20208;-74
2022/02/14 08:36:19;;;;;;;1.53;1.30;;;9.60;99.90;;;;;;5136729;27;20561;-75
2022/02/14 08:38:47;;;;;;;5.47;1.27;;;9.60;99.90;;;;;;5136332;27;20203;-74
2022/02/14 08:41:14;;;;;;;3.17;1.13;;;9.60;99.90;;;;;;5136382;27;20203;-75
2022/02/14 08:43:41;;;;;;;1.60;1.30;;;9.60;99.90;;;;;;5136513;27;20475;-74
2022/02/14 08:46:07;;;;;;;1.90;1.30;;;9.60;99.90;;;;;;5136306;27;20199;-75
2022/02/14 08:48:34;;;;;;;1.80;0.93;;;9.50;99.90;;;;;;5137113;27;20227;-74
2022/02/14 08:51:02;;;;;;;1.73;0.87;;;9.50;99.90;;;;;;5136950;27;20191;-74
2022/02/14 08:53:33;;;;;;;2.53;0.80;;;9.50;99.90;;;;;;5137956;27;20219;-88
2022/02/14 08:56:04;;;;;;;3.30;1.10;;;9.50;99.90;;;;;;5137740;27;20211;-88
2022/02/14 08:58:32;;;;;;;1.20;0.73;;;9.40;99.90;;;;;;5136901;27;20609;-73
2022/02/14 09:00:59;;;;;;;4.33;1.27;;;9.50;99.90;;;;;;5135776;27;20184;-76
2022/02/14 09:03:25;;;;;;;2.83;1.00;;;9.50;99.90;;;;;;5136112;27;20203;-73
2022/02/14 09:05:52;;;;;;;3.63;0.90;;;9.50;99.90;;;;;;5136339;27;20195;-73
2022/02/14 09:08:20;;;;;;;3.13;1.00;;;9.50;99.90;;;;;;5135494;27;20207;-73
2022/02/14 09:10:46;;;;;;;5.33;1.40;;;9.60;99.90;;;;;;5135277;27;20681;-74
2022/02/14 09:13:21;;;;;;;3.93;1.00;;;9.60;99.90;;;;;;5136794;27;20200;-84
2022/02/14 09:15:48;;;;;;;4.10;1.13;;;9.50;99.90;;;;;;5137255;27;20215;-74
2022/02/14 09:18:16;;;;;;;5.20;1.03;;;9.50;99.90;;;;;;5136785;27;20191;-75
2022/02/14 09:20:53;;;;;;;2.13;0.80;;;9.50;99.90;;;;;;5137475;27;20184;-74
2022/02/14 09:23:21;;;;;;;5.33;1.00;;;9.50;99.90;;;;;;5138101;27;20292;-74
2022/02/14 09:25:48;;;;;;;1.73;0.80;;;9.60;99.90;;;;;;5138823;27;20597;-89
2022/02/14 09:28:15;;;;;;;4.00;1.00;;;9.80;99.90;;;;;;5137670;27;20223;-84
2022/02/14 09:30:43;;;;;;;3.37;0.80;;;9.60;99.90;;;;;;5137388;27;20199;-76
2022/02/14 09:33:10;;;;;;;1.87;0.73;;;9.70;99.90;;;;;;5137411;27;20241;-73
2022/02/14 09:35:36;;;;;;;6.87;1.07;;;9.80;99.90;;;;;;5136052;27;20580;-74
2022/02/14 09:38:05;;;;;;;4.20;1.10;;;9.80;99.90;;;;;;5135597;27;20180;-77
2022/02/14 09:40:33;;;;;;;2.20;1.10;;;9.90;99.90;;;;;;5136322;27;20200;-74
2022/02/14 09:43:01;;;;;;;6.93;1.43;;;10.00;99.90;;;;;;5135093;27;20188;-84
2022/02/14 09:45:29;;;;;;;3.80;0.93;;;10.00;99.90;;;;;;5135407;27;20195;-73
2022/02/14 09:47:59;;;;;;;8.13;1.30;;;10.00;99.90;;;;;;5137986;27;20219;-73
2022/02/14 09:50:27;;;;;;;3.93;1.10;;;9.90;99.90;;;;;;5136213;27;20207;-73
2022/02/14 09:52:55;;;;;;;6.20;1.17;;;9.80;99.90;;;;;;5137084;27;20192;-78
2022/02/14 09:55:23;;;;;;;3.23;1.23;;;9.80;99.90;;;;;;5133205;27;20199;-75
2022/02/14 09:57:50;;;;;;;4.50;0.90;;;9.80;99.90;;;;;;5136638;27;20299;-74
2022/02/14 10:00:18;;;;;;;3.50;0.80;;;9.80;99.90;;;;;;5134946;27;20203;-74
2022/02/14 10:02:45;;;;;;;8.07;1.33;;;9.70;99.90;;;;;;5134856;27;20204;-75
2022/02/14 10:05:18;;;;;;;1.07;0.80;;;9.80;99.90;;;;;;5131440;27;20187;-77
2022/02/14 10:07:48;;;;;;;4.50;1.13;;;9.90;99.90;;;;;;5136291;27;20223;-75
2022/02/14 10:10:20;;;;;;;7.63;1.13;;;9.90;99.90;;;;;;5138359;27;20197;-75
2022/02/14 10:12:49;;;;;;;2.83;1.10;;;9.90;99.90;;;;;;5137109;27;20200;-76
2022/02/14 10:15:17;;;;;;;4.80;1.13;;;10.00;99.90;;;;;;5137036;27;20212;-81
2022/02/14 10:17:46;;;;;;;4.97;1.47;;;9.90;99.90;;;;;;5134052;27;20246;-76
2022/02/14 10:20:16;;;;;;;6.80;1.50;;;10.00;99.90;;;;;;5134776;27;20187;-76
2022/02/14 10:22:55;;;;;;;5.53;1.40;;;10.00;99.90;;;;;;5134646;27;20234;-87
2022/02/14 10:25:31;;;;;;;7.43;1.10;;;10.20;99.90;;;;;;5134431;27;20207;-79
2022/02/14 10:28:19;;;;;;;6.50;1.80;;;10.10;99.90;;;;;;5132820;27;20443;-78
2022/02/14 10:30:59;;;;;;;6.07;1.50;;;10.10;99.90;;;;;;5132729;27;20676;-79
2022/02/14 10:33:49;;;;;;;7.43;1.50;;;10.20;99.90;;;;;;5134833;27;20203;-79
2022/02/14 10:36:29;;;;;;;4.37;1.20;;;10.20;99.90;;;;;;5134268;27;20267;-79
2022/02/14 10:38:57;;;;;;;7.83;1.63;;;10.20;99.90;;;;;;5134596;27;20192;-81
2022/02/14 10:41:27;;;;;;;6.60;1.80;;;10.10;99.90;;;;;;5134327;28;20192;-85
2022/02/14 10:45:07;;;;;;;3.73;1.30;;;10.20;99.90;;;;;;5134067;27;20199;-86
2022/02/14 10:47:07;;;;;;;10.03;2.07;;;10.40;99.90;;;;;;5138593;27;20289;-82
2022/02/14 10:49:35;;;;;;;5.07;1.60;;;10.50;99.90;;;;;;5139219;27;20343;-83
2022/02/14 10:52:06;;;;;;;7.43;1.43;;;10.50;99.90;;;;;;5139135;27;20203;-84
2022/02/14 10:54:42;;;;;;;8.87;1.37;;;10.50;99.90;;;;;;5139527;27;20268;-83
2022/02/14 10:57:26;;;;;;;7.00;1.53;;;10.50;99.90;;;;;;5138578;27;20275;-83
2022/02/14 10:59:59;;;;;;;5.30;1.60;;;10.60;99.90;;;;;;5127866;27;20197;-83
2022/02/14 11:02:27;;;;;;;5.60;1.63;;;10.60;99.90;;;;;;5138456;27;20180;-85
2022/02/14 11:04:57;;;;;;;5.15;1.80;;;10.70;99.90;;;;;;5138146;27;20438;-85
2022/02/14 11:07:28;;;;;;;4.70;1.20;;;10.80;99.90;;;;;;5139171;27;20196;-84
2022/02/14 11:10:02;;;;;;;5.23;1.37;;;10.70;99.90;;;;;;5139050;27;20223;-85
2022/02/14 11:12:31;;;;;;;6.63;1.63;;;10.80;99.90;;;;;;5138963;27;20217;-84
2022/02/14 11:15:04;;;;;;;9.40;1.90;;;10.90;99.90;;;;;;5138649;27;20793;-84
2022/02/14 11:17:38;;;;;;;5.93;1.53;;;11.00;99.90;;;;;;5139892;27;20233;-85
2022/02/14 11:20:08;;;;;;;4.87;1.57;;;10.90;99.90;;;;;;5138676;27;20209;-84
2022/02/14 11:22:45;;;;;;;8.70;1.93;;;10.90;99.90;;;;;;5139148;27;20772;-83
2022/02/14 11:25:27;;;;;;;8.37;1.80;;;10.90;99.90;;;;;;5138577;27;20188;-82
2022/02/14 11:28:02;;;;;;;5.43;1.57;;;10.60;99.90;;;;;;5118476;28;20209;-86
2022/02/14 11:30:29;;;;;;;5.67;1.50;;;10.30;99.90;;;;;;5131732;27;20206;-85
2022/02/14 11:33:10;;;;;;;9.33;1.97;;;10.20;99.90;;;;;;5138907;27;20643;-81
2022/02/14 11:35:37;;;;;;;5.70;1.97;;;10.20;99.90;;;;;;5137356;27;20204;-80
2022/02/14 11:38:06;;;;;;;9.27;1.87;;;10.20;99.90;;;;;;5139521;27;20199;-83
2022/02/14 11:40:40;;;;;;;6.83;1.80;;;10.30;99.90;;;;;;5138322;27;20937;-82
2022/02/14 11:43:11;;;;;;;7.17;2.17;;;10.60;99.90;;;;;;5136308;27;20439;-80
2022/02/14 11:45:39;;;;;;;8.03;1.93;;;10.70;99.90;;;;;;5132828;27;20638;-82
2022/02/14 11:48:23;;;;;;;6.63;1.67;;;11.10;99.90;;;;;;5137205;27;20234;-83
2022/02/14 11:50:51;;;;;;;5.97;1.63;;;11.00;99.90;;;;;;5137659;27;20249;-80
2022/02/14 11:53:37;;;;;;;4.83;1.73;;;10.80;99.90;;;;;;5137718;27;20200;-82
2022/02/14 11:56:34;;;;;;;8.80;2.13;;;10.90;99.90;;;;;;5135403;27;20208;-78
2022/02/14 11:59:07;;;;;;;8.77;2.10;;;10.70;99.90;;;;;;5125141;27;20231;-81
2022/02/14 12:01:36;;;;;;;7.87;2.10;;;10.80;99.90;;;;;;5116503;28;20271;-76
2022/02/14 12:04:41;;;;;;;4.47;1.83;;;10.90;99.90;;;;;;5115711;28;20261;-78
2022/02/14 12:07:20;;;;;;;7.97;1.93;;;10.80;99.90;;;;;;5116820;28;20192;-76
2022/02/14 12:10:26;;;;;;;8.97;1.87;;;10.70;99.90;;;;;;5115222;28;20216;-79
2022/02/14 12:13:13;;;;;;;8.63;2.30;;;10.70;99.90;;;;;;5116983;28;20193;-78
2022/02/14 12:21:23;;;;;;;7.87;1.77;;;11.00;99.90;;;;;;5136901;27;20236;-75
2022/02/14 12:23:51;;;;;;;4.87;1.30;;;10.70;99.90;;;;;;5135944;27;20203;-75
2022/02/14 12:26:23;;;;;;;5.87;1.60;;;10.80;99.90;;;;;;5135647;27;20203;-83
2022/02/14 12:29:32;;;;;;;5.80;1.30;;;10.80;99.90;;;;;;5136133;27;20250;-76
2022/02/14 12:31:43;;;;;;;3.57;1.67;;;10.60;99.90;;;;;;5134618;27;20655;-75
2022/02/14 12:34:10;;;;;;;9.20;2.00;;;10.50;99.90;;;;;;5135841;27;20204;-76
2022/02/14 12:36:37;;;;;;;7.53;2.00;;;10.40;99.90;;;;;;5135348;27;20662;-76
2022/02/14 12:39:05;;;;;;;7.53;1.80;;;10.50;99.90;;;;;;5129289;27;20204;-77
2022/02/14 12:41:34;;;;;;;12.10;2.37;;;10.60;99.90;;;;;;5136000;27;20196;-75
2022/02/14 12:44:01;;;;;;;6.43;1.60;;;10.50;99.90;;;;;;5135744;27;20224;-78
2022/02/14 12:46:30;;;;;;;6.03;1.60;;;10.40;99.90;;;;;;5134943;27;20231;-77
2022/02/14 12:49:03;;;;;;;6.13;1.70;;;10.40;99.90;;;;;;5135302;27;20679;-75
2022/02/14 12:51:31;;;;;;;9.17;1.40;;;10.50;99.90;;;;;;5135710;27;20573;-76
2022/02/14 12:54:00;;;;;;;9.93;2.00;;;10.40;99.90;;;;;;5135128;27;20211;-76
2022/02/14 12:56:27;;;;;;;10.35;4.15;;;10.30;99.90;;;;;;5134402;27;20483;-75
2022/02/14 12:58:57;;;;;;;3.20;1.27;;;10.30;99.90;;;;;;5134863;27;20204;-75
2022/02/14 13:01:27;;;;;;;7.27;1.70;;;10.40;99.90;;;;;;5134661;27;20227;-77
2022/02/14 13:03:55;;;;;;;8.00;1.93;;;10.30;99.90;;;;;;5134900;27;20208;-79
2022/02/14 13:06:35;;;;;;;6.10;1.80;;;10.40;99.90;;;;;;5135152;27;20681;-76